sensor_id;sensor_type;location;lat;lon;timestamp;temperature;humidity
68977;SHT31;56029;52.568;13.588;2022-08-26T00:01:34;20.29;92.88
68977;SHT31;56029;52.568;13.588;2022-08-26T00:04:00;20.24;93.03
68977;SHT31;56029;52.568;13.588;2022-08-26T00:06:25;20.21;93.09
68977;SHT31;56029;52.568;13.588;2022-08-26T00:08:51;20.19;93.38
68977;SHT31;56029;52.568;13.588;2022-08-26T00:11:17;20.16;93.72
68977;SHT31;56029;52.568;13.588;2022-08-26T00:13:43;20.16;93.75
68977;SHT31;56029;52.568;13.588;2022-08-26T00:18:37;20.14;93.78
68977;SHT31;56029;52.568;13.588;2022-08-26T00:21:05;20.13;93.83
68977;SHT31;56029;52.568;13.588;2022-08-26T00:23:31;20.16;93.64
68977;SHT31;56029;52.568;13.588;2022-08-26T00:25:56;20.16;93.71
68977;SHT31;56029;52.568;13.588;2022-08-26T00:28:22;20.10;93.80
68977;SHT31;56029;52.568;13.588;2022-08-26T00:30:48;20.12;93.86
68977;SHT31;56029;52.568;13.588;2022-08-26T00:33:18;20.12;93.86
68977;SHT31;56029;52.568;13.588;2022-08-26T00:35:45;20.12;93.87
68977;SHT31;56029;52.568;13.588;2022-08-26T00:38:12;20.12;93.85
68977;SHT31;56029;52.568;13.588;2022-08-26T00:40:45;20.06;93.97
68977;SHT31;56029;52.568;13.588;2022-08-26T00:43:11;20.06;93.83
68977;SHT31;56029;52.568;13.588;2022-08-26T00:45:44;20.08;93.89
68977;SHT31;56029;52.568;13.588;2022-08-26T00:48:14;20.02;93.99
68977;SHT31;56029;52.568;13.588;2022-08-26T00:50:44;20.02;94.00
68977;SHT31;56029;52.568;13.588;2022-08-26T00:53:14;20.03;94.48
68977;SHT31;56029;52.568;13.588;2022-08-26T00:55:56;20.05;94.37
68977;SHT31;56029;52.568;13.588;2022-08-26T00:58:26;20.05;94.49
68977;SHT31;56029;52.568;13.588;2022-08-26T01:00:52;20.08;94.38
68977;SHT31;56029;52.568;13.588;2022-08-26T01:03:22;20.09;94.40
68977;SHT31;56029;52.568;13.588;2022-08-26T01:05:49;20.10;94.24
68977;SHT31;56029;52.568;13.588;2022-08-26T01:08:15;20.06;94.08
68977;SHT31;56029;52.568;13.588;2022-08-26T01:10:41;20.00;94.06
68977;SHT31;56029;52.568;13.588;2022-08-26T01:13:08;19.93;94.43
68977;SHT31;56029;52.568;13.588;2022-08-26T01:15:41;19.90;94.34
68977;SHT31;56029;52.568;13.588;2022-08-26T01:18:07;19.89;94.50
68977;SHT31;56029;52.568;13.588;2022-08-26T01:23:17;19.92;94.51
68977;SHT31;56029;52.568;13.588;2022-08-26T01:25:55;19.96;94.61
68977;SHT31;56029;52.568;13.588;2022-08-26T01:28:26;20.03;94.97
68977;SHT31;56029;52.568;13.588;2022-08-26T01:30:54;20.09;94.88
68977;SHT31;56029;52.568;13.588;2022-08-26T01:33:45;20.13;94.72
68977;SHT31;56029;52.568;13.588;2022-08-26T01:36:12;20.17;94.77
68977;SHT31;56029;52.568;13.588;2022-08-26T01:38:40;20.16;94.81
68977;SHT31;56029;52.568;13.588;2022-08-26T01:41:07;20.21;94.72
68977;SHT31;56029;52.568;13.588;2022-08-26T01:43:34;20.24;94.65
68977;SHT31;56029;52.568;13.588;2022-08-26T01:46:03;20.29;94.54
68977;SHT31;56029;52.568;13.588;2022-08-26T01:48:30;20.29;94.53
68977;SHT31;56029;52.568;13.588;2022-08-26T01:50:58;20.29;94.48
68977;SHT31;56029;52.568;13.588;2022-08-26T01:53:24;20.30;94.76
68977;SHT31;56029;52.568;13.588;2022-08-26T01:55:54;20.27;94.96
68977;SHT31;56029;52.568;13.588;2022-08-26T01:58:25;20.23;94.93
68977;SHT31;56029;52.568;13.588;2022-08-26T02:00:53;20.21;94.96
68977;SHT31;56029;52.568;13.588;2022-08-26T02:03:19;20.17;95.13
68977;SHT31;56029;52.568;13.588;2022-08-26T02:06:19;20.16;95.08
68977;SHT31;56029;52.568;13.588;2022-08-26T02:08:44;20.14;95.36
68977;SHT31;56029;52.568;13.588;2022-08-26T02:11:11;20.12;95.21
68977;SHT31;56029;52.568;13.588;2022-08-26T02:13:39;20.12;95.30
68977;SHT31;56029;52.568;13.588;2022-08-26T02:16:06;20.10;95.39
68977;SHT31;56029;52.568;13.588;2022-08-26T02:18:36;20.10;95.48
68977;SHT31;56029;52.568;13.588;2022-08-26T02:21:03;20.09;95.76
68977;SHT31;56029;52.568;13.588;2022-08-26T02:23:29;20.06;95.82
68977;SHT31;56029;52.568;13.588;2022-08-26T02:25:59;20.02;95.66
68977;SHT31;56029;52.568;13.588;2022-08-26T02:28:30;20.02;95.98
68977;SHT31;56029;52.568;13.588;2022-08-26T02:30:56;20.00;95.86
68977;SHT31;56029;52.568;13.588;2022-08-26T02:33:21;19.96;95.87
68977;SHT31;56029;52.568;13.588;2022-08-26T02:35:47;19.94;96.11
68977;SHT31;56029;52.568;13.588;2022-08-26T02:38:13;19.93;95.97
68977;SHT31;56029;52.568;13.588;2022-08-26T02:40:40;19.94;95.96
68977;SHT31;56029;52.568;13.588;2022-08-26T02:43:07;19.92;95.89
68977;SHT31;56029;52.568;13.588;2022-08-26T02:45:34;19.93;96.02
68977;SHT31;56029;52.568;13.588;2022-08-26T02:48:07;19.92;95.95
68977;SHT31;56029;52.568;13.588;2022-08-26T02:50:34;19.96;95.83
68977;SHT31;56029;52.568;13.588;2022-08-26T02:53:00;19.94;95.77
68977;SHT31;56029;52.568;13.588;2022-08-26T02:55:25;19.93;95.88
68977;SHT31;56029;52.568;13.588;2022-08-26T02:57:51;19.90;95.79
68977;SHT31;56029;52.568;13.588;2022-08-26T03:00:17;19.90;95.88
68977;SHT31;56029;52.568;13.588;2022-08-26T03:02:42;19.90;95.89
68977;SHT31;56029;52.568;13.588;2022-08-26T03:05:10;19.87;95.96
68977;SHT31;56029;52.568;13.588;2022-08-26T03:07:36;19.87;95.96
68977;SHT31;56029;52.568;13.588;2022-08-26T03:10:03;19.87;96.11
68977;SHT31;56029;52.568;13.588;2022-08-26T03:12:29;19.86;96.14
68977;SHT31;56029;52.568;13.588;2022-08-26T03:14:54;19.86;96.34
68977;SHT31;56029;52.568;13.588;2022-08-26T03:17:20;19.86;96.52
68977;SHT31;56029;52.568;13.588;2022-08-26T03:19:46;19.86;96.49
68977;SHT31;56029;52.568;13.588;2022-08-26T03:22:11;19.90;96.48
68977;SHT31;56029;52.568;13.588;2022-08-26T03:24:37;19.85;96.33
68977;SHT31;56029;52.568;13.588;2022-08-26T03:27:03;19.86;96.39
68977;SHT31;56029;52.568;13.588;2022-08-26T03:29:29;19.83;96.44
68977;SHT31;56029;52.568;13.588;2022-08-26T03:32:13;19.81;96.54
68977;SHT31;56029;52.568;13.588;2022-08-26T03:34:41;19.79;96.78
68977;SHT31;56029;52.568;13.588;2022-08-26T03:37:06;19.78;96.83
68977;SHT31;56029;52.568;13.588;2022-08-26T03:39:32;19.76;96.88
68977;SHT31;56029;52.568;13.588;2022-08-26T03:41:58;19.71;97.07
68977;SHT31;56029;52.568;13.588;2022-08-26T03:44:23;19.69;97.15
68977;SHT31;56029;52.568;13.588;2022-08-26T03:46:49;19.63;97.18
68977;SHT31;56029;52.568;13.588;2022-08-26T03:49:15;19.62;97.25
68977;SHT31;56029;52.568;13.588;2022-08-26T03:51:40;19.62;97.41
68977;SHT31;56029;52.568;13.588;2022-08-26T03:54:06;19.55;97.31
68977;SHT31;56029;52.568;13.588;2022-08-26T03:56:32;19.48;97.50
68977;SHT31;56029;52.568;13.588;2022-08-26T03:58:59;19.44;97.47
68977;SHT31;56029;52.568;13.588;2022-08-26T04:01:26;19.42;97.25
68977;SHT31;56029;52.568;13.588;2022-08-26T04:03:52;19.41;97.55
68977;SHT31;56029;52.568;13.588;2022-08-26T04:06:35;19.38;97.48
68977;SHT31;56029;52.568;13.588;2022-08-26T04:09:04;19.39;97.77
68977;SHT31;56029;52.568;13.588;2022-08-26T04:11:31;19.41;97.77
68977;SHT31;56029;52.568;13.588;2022-08-26T04:13:59;19.35;97.98
68977;SHT31;56029;52.568;13.588;2022-08-26T04:16:26;19.39;97.96
68977;SHT31;56029;52.568;13.588;2022-08-26T04:18:52;19.42;98.10
68977;SHT31;56029;52.568;13.588;2022-08-26T04:21:18;19.45;97.94
68977;SHT31;56029;52.568;13.588;2022-08-26T04:23:44;19.50;98.01
68977;SHT31;56029;52.568;13.588;2022-08-26T04:26:09;19.57;97.85
68977;SHT31;56029;52.568;13.588;2022-08-26T04:28:35;19.59;97.64
68977;SHT31;56029;52.568;13.588;2022-08-26T04:31:00;19.65;97.57
68977;SHT31;56029;52.568;13.588;2022-08-26T04:33:26;19.71;97.49
68977;SHT31;56029;52.568;13.588;2022-08-26T04:36:00;19.76;97.41
68977;SHT31;56029;52.568;13.588;2022-08-26T04:38:26;19.85;97.15
68977;SHT31;56029;52.568;13.588;2022-08-26T04:40:51;19.92;96.95
68977;SHT31;56029;52.568;13.588;2022-08-26T04:43:17;19.96;96.71
68977;SHT31;56029;52.568;13.588;2022-08-26T04:45:42;20.06;96.42
68977;SHT31;56029;52.568;13.588;2022-08-26T04:48:08;20.13;96.08
68977;SHT31;56029;52.568;13.588;2022-08-26T04:50:34;20.13;96.02
68977;SHT31;56029;52.568;13.588;2022-08-26T04:53:00;20.23;95.73
68977;SHT31;56029;52.568;13.588;2022-08-26T04:55:25;20.29;95.55
68977;SHT31;56029;52.568;13.588;2022-08-26T04:57:51;20.30;95.53
68977;SHT31;56029;52.568;13.588;2022-08-26T05:00:18;20.31;95.53
68977;SHT31;56029;52.568;13.588;2022-08-26T05:02:44;20.26;95.71
68977;SHT31;56029;52.568;13.588;2022-08-26T05:05:11;20.29;95.73
68977;SHT31;56029;52.568;13.588;2022-08-26T05:07:38;20.27;95.74
68977;SHT31;56029;52.568;13.588;2022-08-26T05:10:05;20.33;95.49
68977;SHT31;56029;52.568;13.588;2022-08-26T05:12:31;20.38;95.54
68977;SHT31;56029;52.568;13.588;2022-08-26T05:14:57;20.47;95.37
68977;SHT31;56029;52.568;13.588;2022-08-26T05:17:22;20.51;95.18
68977;SHT31;56029;52.568;13.588;2022-08-26T05:19:48;20.58;94.94
68977;SHT31;56029;52.568;13.588;2022-08-26T05:22:15;20.57;94.64
68977;SHT31;56029;52.568;13.588;2022-08-26T05:24:41;20.61;94.73
68977;SHT31;56029;52.568;13.588;2022-08-26T05:27:08;20.67;94.67
68977;SHT31;56029;52.568;13.588;2022-08-26T05:29:33;20.77;94.31
68977;SHT31;56029;52.568;13.588;2022-08-26T05:31:59;20.79;94.42
68977;SHT31;56029;52.568;13.588;2022-08-26T05:34:26;20.85;94.11
68977;SHT31;56029;52.568;13.588;2022-08-26T05:36:52;20.88;94.43
68977;SHT31;56029;52.568;13.588;2022-08-26T05:39:18;20.94;93.87
68977;SHT31;56029;52.568;13.588;2022-08-26T05:41:44;20.99;93.52
68977;SHT31;56029;52.568;13.588;2022-08-26T05:44:12;21.09;93.17
68977;SHT31;56029;52.568;13.588;2022-08-26T05:46:39;21.16;93.29
68977;SHT31;56029;52.568;13.588;2022-08-26T05:49:05;21.20;92.72
68977;SHT31;56029;52.568;13.588;2022-08-26T05:51:32;21.26;92.69
68977;SHT31;56029;52.568;13.588;2022-08-26T05:54:00;21.32;92.70
68977;SHT31;56029;52.568;13.588;2022-08-26T05:56:26;21.29;92.55
68977;SHT31;56029;52.568;13.588;2022-08-26T05:58:55;21.35;92.79
68977;SHT31;56029;52.568;13.588;2022-08-26T06:01:25;21.37;92.71
68977;SHT31;56029;52.568;13.588;2022-08-26T06:03:53;21.45;92.60
68977;SHT31;56029;52.568;13.588;2022-08-26T06:06:21;21.56;92.12
68977;SHT31;56029;52.568;13.588;2022-08-26T06:08:48;21.64;91.90
68977;SHT31;56029;52.568;13.588;2022-08-26T06:11:17;21.74;91.79
68977;SHT31;56029;52.568;13.588;2022-08-26T06:13:43;21.78;91.60
68977;SHT31;56029;52.568;13.588;2022-08-26T06:16:12;21.85;91.43
68977;SHT31;56029;52.568;13.588;2022-08-26T06:18:40;21.93;91.00
68977;SHT31;56029;52.568;13.588;2022-08-26T06:23:46;22.08;90.72
68977;SHT31;56029;52.568;13.588;2022-08-26T06:26:32;22.18;90.31
68977;SHT31;56029;52.568;13.588;2022-08-26T06:28:58;22.33;90.17
68977;SHT31;56029;52.568;13.588;2022-08-26T06:31:24;22.48;89.61
68977;SHT31;56029;52.568;13.588;2022-08-26T06:33:50;22.52;89.43
68977;SHT31;56029;52.568;13.588;2022-08-26T06:36:18;22.60;88.98
68977;SHT31;56029;52.568;13.588;2022-08-26T06:38:46;22.70;88.97
68977;SHT31;56029;52.568;13.588;2022-08-26T06:41:12;22.76;88.76
68977;SHT31;56029;52.568;13.588;2022-08-26T06:43:38;22.83;88.73
68977;SHT31;56029;52.568;13.588;2022-08-26T06:46:06;22.93;88.35
68977;SHT31;56029;52.568;13.588;2022-08-26T06:48:33;23.04;88.00
68977;SHT31;56029;52.568;13.588;2022-08-26T06:51:07;23.14;87.94
68977;SHT31;56029;52.568;13.588;2022-08-26T06:53:34;23.25;87.50
68977;SHT31;56029;52.568;13.588;2022-08-26T06:56:04;23.35;87.08
68977;SHT31;56029;52.568;13.588;2022-08-26T06:58:31;23.42;86.94
68977;SHT31;56029;52.568;13.588;2022-08-26T07:00:56;23.55;86.99
68977;SHT31;56029;52.568;13.588;2022-08-26T07:03:22;23.62;86.42
68977;SHT31;56029;52.568;13.588;2022-08-26T07:05:48;23.73;86.52
68977;SHT31;56029;52.568;13.588;2022-08-26T07:08:14;23.86;85.66
68977;SHT31;56029;52.568;13.588;2022-08-26T07:10:41;23.80;85.60
68977;SHT31;56029;52.568;13.588;2022-08-26T07:13:07;23.92;85.82
68977;SHT31;56029;52.568;13.588;2022-08-26T07:15:32;24.03;85.17
68977;SHT31;56029;52.568;13.588;2022-08-26T07:18:00;24.05;85.03
68977;SHT31;56029;52.568;13.588;2022-08-26T07:20:26;24.13;85.05
68977;SHT31;56029;52.568;13.588;2022-08-26T07:22:51;24.16;84.92
68977;SHT31;56029;52.568;13.588;2022-08-26T07:25:17;24.23;84.42
68977;SHT31;56029;52.568;13.588;2022-08-26T07:27:43;24.26;84.72
68977;SHT31;56029;52.568;13.588;2022-08-26T07:30:09;24.31;85.23
68977;SHT31;56029;52.568;13.588;2022-08-26T07:32:35;24.36;84.38
68977;SHT31;56029;52.568;13.588;2022-08-26T07:35:02;24.47;84.55
68977;SHT31;56029;52.568;13.588;2022-08-26T07:37:28;24.58;84.62
68977;SHT31;56029;52.568;13.588;2022-08-26T07:39:53;24.69;83.99
68977;SHT31;56029;52.568;13.588;2022-08-26T07:42:19;24.78;83.90
68977;SHT31;56029;52.568;13.588;2022-08-26T07:44:45;24.82;83.31
68977;SHT31;56029;52.568;13.588;2022-08-26T07:47:12;24.89;83.95
68977;SHT31;56029;52.568;13.588;2022-08-26T07:49:37;24.95;83.24
68977;SHT31;56029;52.568;13.588;2022-08-26T07:52:04;25.04;82.88
68977;SHT31;56029;52.568;13.588;2022-08-26T07:54:30;25.11;82.94
68977;SHT31;56029;52.568;13.588;2022-08-26T07:56:56;25.09;82.66
68977;SHT31;56029;52.568;13.588;2022-08-26T07:59:22;25.18;82.48
68977;SHT31;56029;52.568;13.588;2022-08-26T08:01:47;25.29;82.70
68977;SHT31;56029;52.568;13.588;2022-08-26T08:04:14;25.37;82.01
68977;SHT31;56029;52.568;13.588;2022-08-26T08:06:42;25.40;81.17
68977;SHT31;56029;52.568;13.588;2022-08-26T08:09:08;25.57;81.12
68977;SHT31;56029;52.568;13.588;2022-08-26T08:11:33;25.66;80.11
68977;SHT31;56029;52.568;13.588;2022-08-26T08:14:00;25.90;79.89
68977;SHT31;56029;52.568;13.588;2022-08-26T08:16:29;26.05;79.03
68977;SHT31;56029;52.568;13.588;2022-08-26T08:18:55;26.14;78.44
68977;SHT31;56029;52.568;13.588;2022-08-26T08:21:24;26.24;77.37
68977;SHT31;56029;52.568;13.588;2022-08-26T08:23:52;26.45;76.76
68977;SHT31;56029;52.568;13.588;2022-08-26T08:26:18;26.62;76.84
68977;SHT31;56029;52.568;13.588;2022-08-26T08:28:44;26.82;75.50
68977;SHT31;56029;52.568;13.588;2022-08-26T08:31:18;26.91;75.38
68977;SHT31;56029;52.568;13.588;2022-08-26T08:33:45;26.99;74.59
68977;SHT31;56029;52.568;13.588;2022-08-26T08:36:10;27.12;74.88
68977;SHT31;56029;52.568;13.588;2022-08-26T08:38:39;27.28;73.31
68977;SHT31;56029;52.568;13.588;2022-08-26T08:41:05;27.34;73.20
68977;SHT31;56029;52.568;13.588;2022-08-26T08:43:39;27.41;72.69
68977;SHT31;56029;52.568;13.588;2022-08-26T08:46:13;27.48;73.22
68977;SHT31;56029;52.568;13.588;2022-08-26T08:48:43;27.48;72.48
68977;SHT31;56029;52.568;13.588;2022-08-26T08:51:25;27.59;73.00
68977;SHT31;56029;52.568;13.588;2022-08-26T08:53:55;27.51;70.05
68977;SHT31;56029;52.568;13.588;2022-08-26T08:56:34;27.38;70.07
68977;SHT31;56029;52.568;13.588;2022-08-26T09:06:57;27.11;71.59
68977;SHT31;56029;52.568;13.588;2022-08-26T09:09:33;27.24;72.19
68977;SHT31;56029;52.568;13.588;2022-08-26T09:12:02;27.31;71.25
68977;SHT31;56029;52.568;13.588;2022-08-26T09:14:29;27.44;71.20
68977;SHT31;56029;52.568;13.588;2022-08-26T09:17:14;27.49;71.21
68977;SHT31;56029;52.568;13.588;2022-08-26T09:19:50;27.44;70.44
68977;SHT31;56029;52.568;13.588;2022-08-26T09:22:31;27.41;69.92
68977;SHT31;56029;52.568;13.588;2022-08-26T09:24:57;27.47;70.06
68977;SHT31;56029;52.568;13.588;2022-08-26T09:27:43;27.58;70.24
68977;SHT31;56029;52.568;13.588;2022-08-26T09:30:25;27.66;70.41
68977;SHT31;56029;52.568;13.588;2022-08-26T09:33:03;27.79;68.84
68977;SHT31;56029;52.568;13.588;2022-08-26T09:35:34;27.73;68.05
68977;SHT31;56029;52.568;13.588;2022-08-26T09:38:01;27.78;67.84
68977;SHT31;56029;52.568;13.588;2022-08-26T09:40:31;27.93;68.65
68977;SHT31;56029;52.568;13.588;2022-08-26T09:43:14;28.14;68.28
68977;SHT31;56029;52.568;13.588;2022-08-26T09:45:43;28.20;67.01
68977;SHT31;56029;52.568;13.588;2022-08-26T09:48:10;28.32;67.16
68977;SHT31;56029;52.568;13.588;2022-08-26T09:50:54;28.50;66.42
68977;SHT31;56029;52.568;13.588;2022-08-26T09:53:31;28.40;65.99
68977;SHT31;56029;52.568;13.588;2022-08-26T09:56:16;28.28;65.37
68977;SHT31;56029;52.568;13.588;2022-08-26T09:58:45;28.17;66.34
68977;SHT31;56029;52.568;13.588;2022-08-26T10:01:35;28.14;67.48
68977;SHT31;56029;52.568;13.588;2022-08-26T10:04:21;28.16;66.42
68977;SHT31;56029;52.568;13.588;2022-08-26T10:09:25;28.40;68.58
68977;SHT31;56029;52.568;13.588;2022-08-26T10:11:56;28.53;65.96
68977;SHT31;56029;52.568;13.588;2022-08-26T10:14:28;28.41;64.21
68977;SHT31;56029;52.568;13.588;2022-08-26T10:17:02;28.39;66.01
68977;SHT31;56029;52.568;13.588;2022-08-26T10:19:38;28.41;66.36
68977;SHT31;56029;52.568;13.588;2022-08-26T10:22:11;28.53;65.71
68977;SHT31;56029;52.568;13.588;2022-08-26T10:24:48;28.57;65.09
68977;SHT31;56029;52.568;13.588;2022-08-26T10:27:26;28.69;65.58
68977;SHT31;56029;52.568;13.588;2022-08-26T10:30:03;28.96;65.13
68977;SHT31;56029;52.568;13.588;2022-08-26T10:32:39;29.05;65.60
68977;SHT31;56029;52.568;13.588;2022-08-26T10:35:08;29.36;64.87
68977;SHT31;56029;52.568;13.588;2022-08-26T10:37:38;29.63;63.86
68977;SHT31;56029;52.568;13.588;2022-08-26T10:40:22;29.73;62.73
68977;SHT31;56029;52.568;13.588;2022-08-26T10:43:02;29.82;61.72
68977;SHT31;56029;52.568;13.588;2022-08-26T10:45:37;29.91;62.66
68977;SHT31;56029;52.568;13.588;2022-08-26T10:48:04;29.96;61.99
68977;SHT31;56029;52.568;13.588;2022-08-26T10:50:35;30.15;62.43
68977;SHT31;56029;52.568;13.588;2022-08-26T10:53:16;30.21;61.70
68977;SHT31;56029;52.568;13.588;2022-08-26T10:56:06;30.11;61.28
68977;SHT31;56029;52.568;13.588;2022-08-26T10:59:13;30.07;61.05
68977;SHT31;56029;52.568;13.588;2022-08-26T11:01:46;30.09;61.59
68977;SHT31;56029;52.568;13.588;2022-08-26T11:04:39;30.00;61.10
68977;SHT31;56029;52.568;13.588;2022-08-26T11:07:39;30.04;61.78
68977;SHT31;56029;52.568;13.588;2022-08-26T11:12:50;29.97;61.32
68977;SHT31;56029;52.568;13.588;2022-08-26T11:22:55;29.60;62.82
68977;SHT31;56029;52.568;13.588;2022-08-26T11:25:22;29.57;63.44
68977;SHT31;56029;52.568;13.588;2022-08-26T11:33:12;29.45;62.77
68977;SHT31;56029;52.568;13.588;2022-08-26T11:35:55;29.42;63.27
68977;SHT31;56029;52.568;13.588;2022-08-26T11:38:26;29.46;63.87
68977;SHT31;56029;52.568;13.588;2022-08-26T11:41:16;29.45;64.00
68977;SHT31;56029;52.568;13.588;2022-08-26T11:43:42;29.33;64.24
68977;SHT31;56029;52.568;13.588;2022-08-26T11:46:10;29.33;64.03
68977;SHT31;56029;52.568;13.588;2022-08-26T11:48:43;29.27;64.37
68977;SHT31;56029;52.568;13.588;2022-08-26T11:51:21;29.32;63.93
68977;SHT31;56029;52.568;13.588;2022-08-26T11:53:48;29.29;64.70
68977;SHT31;56029;52.568;13.588;2022-08-26T11:56:27;29.25;64.33
68977;SHT31;56029;52.568;13.588;2022-08-26T11:58:56;29.18;64.52
68977;SHT31;56029;52.568;13.588;2022-08-26T12:01:26;29.05;67.48
68977;SHT31;56029;52.568;13.588;2022-08-26T12:03:52;29.01;66.90
68977;SHT31;56029;52.568;13.588;2022-08-26T12:06:30;28.85;66.37
68977;SHT31;56029;52.568;13.588;2022-08-26T12:09:00;28.79;66.82
68977;SHT31;56029;52.568;13.588;2022-08-26T12:11:29;28.61;67.55
68977;SHT31;56029;52.568;13.588;2022-08-26T12:14:06;28.51;67.31
68977;SHT31;56029;52.568;13.588;2022-08-26T12:16:36;28.40;67.93
68977;SHT31;56029;52.568;13.588;2022-08-26T12:19:28;28.28;68.67
68977;SHT31;56029;52.568;13.588;2022-08-26T12:22:01;27.99;66.84
68977;SHT31;56029;52.568;13.588;2022-08-26T12:24:26;26.69;64.86
68977;SHT31;56029;52.568;13.588;2022-08-26T12:27:20;25.75;65.78
68977;SHT31;56029;52.568;13.588;2022-08-26T12:30:00;24.99;67.80
68977;SHT31;56029;52.568;13.588;2022-08-26T12:32:27;24.13;71.12
68977;SHT31;56029;52.568;13.588;2022-08-26T12:34:53;23.82;73.64
68977;SHT31;56029;52.568;13.588;2022-08-26T12:37:19;23.44;75.05
68977;SHT31;56029;52.568;13.588;2022-08-26T12:39:45;23.28;76.15
68977;SHT31;56029;52.568;13.588;2022-08-26T12:47:22;22.45;79.84
68977;SHT31;56029;52.568;13.588;2022-08-26T12:50:17;22.29;80.96
68977;SHT31;56029;52.568;13.588;2022-08-26T12:55:37;22.06;83.45
68977;SHT31;56029;52.568;13.588;2022-08-26T12:58:32;21.91;84.73
68977;SHT31;56029;52.568;13.588;2022-08-26T13:12:12;20.78;95.05
68977;SHT31;56029;52.568;13.588;2022-08-26T13:14:21;20.63;95.64
68977;SHT31;56029;52.568;13.588;2022-08-26T13:16:46;20.54;96.55
68977;SHT31;56029;52.568;13.588;2022-08-26T13:19:16;20.55;97.19
68977;SHT31;56029;52.568;13.588;2022-08-26T13:21:46;20.75;97.33
68977;SHT31;56029;52.568;13.588;2022-08-26T13:24:19;20.75;97.47
68977;SHT31;56029;52.568;13.588;2022-08-26T13:26:48;20.45;98.20
68977;SHT31;56029;52.568;13.588;2022-08-26T13:29:14;20.30;98.42
68977;SHT31;56029;52.568;13.588;2022-08-26T13:31:41;20.13;99.99
68977;SHT31;56029;52.568;13.588;2022-08-26T13:34:11;19.99;99.99
68977;SHT31;56029;52.568;13.588;2022-08-26T13:36:37;19.96;99.99
68977;SHT31;56029;52.568;13.588;2022-08-26T13:39:04;19.89;97.75
68977;SHT31;56029;52.568;13.588;2022-08-26T13:41:31;19.85;97.79
68977;SHT31;56029;52.568;13.588;2022-08-26T13:43:57;19.69;97.40
68977;SHT31;56029;52.568;13.588;2022-08-26T13:46:24;19.63;97.43
68977;SHT31;56029;52.568;13.588;2022-08-26T13:48:50;19.59;97.54
68977;SHT31;56029;52.568;13.588;2022-08-26T13:51:16;19.62;97.63
68977;SHT31;56029;52.568;13.588;2022-08-26T13:53:43;19.51;97.36
68977;SHT31;56029;52.568;13.588;2022-08-26T13:56:08;19.55;97.41
68977;SHT31;56029;52.568;13.588;2022-08-26T13:58:34;19.42;97.14
68977;SHT31;56029;52.568;13.588;2022-08-26T14:01:00;19.39;97.28
68977;SHT31;56029;52.568;13.588;2022-08-26T14:03:26;19.36;97.42
68977;SHT31;56029;52.568;13.588;2022-08-26T14:05:52;19.24;97.51
68977;SHT31;56029;52.568;13.588;2022-08-26T14:08:18;19.32;97.62
68977;SHT31;56029;52.568;13.588;2022-08-26T14:10:44;19.34;97.65
68977;SHT31;56029;52.568;13.588;2022-08-26T14:13:12;19.28;97.74
68977;SHT31;56029;52.568;13.588;2022-08-26T14:15:37;19.36;97.81
68977;SHT31;56029;52.568;13.588;2022-08-26T14:18:05;19.39;97.85
68977;SHT31;56029;52.568;13.588;2022-08-26T14:20:32;19.36;97.89
68977;SHT31;56029;52.568;13.588;2022-08-26T14:22:58;19.36;97.93
68977;SHT31;56029;52.568;13.588;2022-08-26T14:25:24;19.38;97.97
68977;SHT31;56029;52.568;13.588;2022-08-26T14:27:50;19.38;98.00
68977;SHT31;56029;52.568;13.588;2022-08-26T14:30:18;19.41;98.06
68977;SHT31;56029;52.568;13.588;2022-08-26T14:32:47;19.51;98.06
68977;SHT31;56029;52.568;13.588;2022-08-26T14:35:17;19.55;98.07
68977;SHT31;56029;52.568;13.588;2022-08-26T14:37:43;19.65;98.13
68977;SHT31;56029;52.568;13.588;2022-08-26T14:40:09;19.78;98.13
68977;SHT31;56029;52.568;13.588;2022-08-26T14:42:35;19.75;98.18
68977;SHT31;56029;52.568;13.588;2022-08-26T14:45:03;19.73;98.17
68977;SHT31;56029;52.568;13.588;2022-08-26T14:47:29;19.61;98.21
68977;SHT31;56029;52.568;13.588;2022-08-26T14:49:55;19.68;98.20
68977;SHT31;56029;52.568;13.588;2022-08-26T14:52:20;19.62;98.22
68977;SHT31;56029;52.568;13.588;2022-08-26T14:54:46;19.75;98.30
68977;SHT31;56029;52.568;13.588;2022-08-26T14:57:12;19.72;98.29
68977;SHT31;56029;52.568;13.588;2022-08-26T14:59:40;19.61;98.33
68977;SHT31;56029;52.568;13.588;2022-08-26T15:02:08;19.76;98.39
68977;SHT31;56029;52.568;13.588;2022-08-26T15:04:35;19.71;98.39
68977;SHT31;56029;52.568;13.588;2022-08-26T15:07:02;19.66;98.42
68977;SHT31;56029;52.568;13.588;2022-08-26T15:09:29;19.68;98.42
68977;SHT31;56029;52.568;13.588;2022-08-26T15:11:55;19.55;98.45
68977;SHT31;56029;52.568;13.588;2022-08-26T15:14:22;19.54;98.50
68977;SHT31;56029;52.568;13.588;2022-08-26T15:16:49;19.62;98.55
68977;SHT31;56029;52.568;13.588;2022-08-26T15:19:15;19.59;98.52
68977;SHT31;56029;52.568;13.588;2022-08-26T15:21:41;19.72;98.60
68977;SHT31;56029;52.568;13.588;2022-08-26T15:24:08;19.52;98.66
68977;SHT31;56029;52.568;13.588;2022-08-26T15:26:34;19.62;98.70
68977;SHT31;56029;52.568;13.588;2022-08-26T15:28:59;19.73;98.71
68977;SHT31;56029;52.568;13.588;2022-08-26T15:31:28;19.50;98.71
68977;SHT31;56029;52.568;13.588;2022-08-26T15:34:02;19.55;98.73
68977;SHT31;56029;52.568;13.588;2022-08-26T15:36:29;19.58;98.76
68977;SHT31;56029;52.568;13.588;2022-08-26T15:38:57;19.35;98.77
68977;SHT31;56029;52.568;13.588;2022-08-26T15:41:22;19.36;98.80
68977;SHT31;56029;52.568;13.588;2022-08-26T15:43:50;19.55;98.84
68977;SHT31;56029;52.568;13.588;2022-08-26T15:46:17;19.41;98.82
68977;SHT31;56029;52.568;13.588;2022-08-26T15:48:42;19.65;98.81
68977;SHT31;56029;52.568;13.588;2022-08-26T15:51:19;19.75;98.83
68977;SHT31;56029;52.568;13.588;2022-08-26T15:53:45;19.69;98.85
68977;SHT31;56029;52.568;13.588;2022-08-26T15:56:11;19.61;98.89
68977;SHT31;56029;52.568;13.588;2022-08-26T15:58:37;19.61;98.86
68977;SHT31;56029;52.568;13.588;2022-08-26T16:01:02;19.62;98.90
68977;SHT31;56029;52.568;13.588;2022-08-26T16:03:28;19.62;98.92
68977;SHT31;56029;52.568;13.588;2022-08-26T16:05:54;19.63;98.92
68977;SHT31;56029;52.568;13.588;2022-08-26T16:08:19;19.68;98.94
68977;SHT31;56029;52.568;13.588;2022-08-26T16:10:47;19.61;98.94
68977;SHT31;56029;52.568;13.588;2022-08-26T16:13:13;19.65;98.95
68977;SHT31;56029;52.568;13.588;2022-08-26T16:15:39;19.75;98.98
68977;SHT31;56029;52.568;13.588;2022-08-26T16:18:06;19.58;98.98
68977;SHT31;56029;52.568;13.588;2022-08-26T16:20:34;19.59;99.04